createdAt,value
2018-05-18T00:01:21.344Z,5.80
2018-05-18T00:03:47.598Z,5.40
2018-05-18T00:06:13.829Z,8.07
2018-05-18T00:08:40.138Z,6.67
2018-05-18T00:11:06.375Z,7.60
2018-05-18T00:13:33.043Z,6.97
2018-05-18T00:15:59.769Z,5.33
2018-05-18T00:18:26.859Z,6.90
2018-05-18T00:20:54.288Z,5.60
2018-05-18T00:23:20.533Z,4.40
2018-05-18T00:25:47.160Z,4.33
2018-05-18T00:28:13.948Z,6.40
2018-05-18T00:30:41.521Z,4.13
2018-05-18T00:33:08.492Z,5.50
2018-05-18T00:35:34.704Z,5.30
2018-05-18T00:38:01.694Z,6.03
2018-05-18T00:40:27.938Z,7.37
2018-05-18T00:42:54.237Z,4.67
2018-05-18T00:45:20.487Z,6.80
2018-05-18T00:47:47.062Z,5.73
2018-05-18T00:50:13.576Z,5.97
2018-05-18T00:52:39.796Z,6.97
2018-05-18T00:55:18.426Z,10.50
2018-05-18T00:57:45.037Z,10.10
2018-05-18T01:00:12.009Z,7.97
2018-05-18T01:02:38.683Z,9.17
2018-05-18T01:05:04.904Z,6.77
2018-05-18T01:07:31.784Z,5.90
2018-05-18T01:09:58.661Z,4.40
2018-05-18T01:12:25.628Z,5.07
2018-05-18T01:14:52.871Z,6.97
2018-05-18T01:17:20.168Z,4.70
2018-05-18T01:19:46.400Z,6.27
2018-05-18T01:22:12.640Z,6.00
2018-05-18T01:24:39.557Z,6.40
2018-05-18T01:27:06.388Z,7.50
2018-05-18T01:29:33.363Z,7.87
2018-05-18T01:32:00.965Z,9.63
2018-05-18T01:34:27.212Z,9.20
2018-05-18T01:36:53.451Z,7.87
2018-05-18T01:39:19.697Z,8.20
2018-05-18T01:41:45.914Z,5.70
2018-05-18T01:44:12.605Z,6.80
2018-05-18T01:46:39.534Z,11.10
2018-05-18T01:49:07.125Z,10.07
2018-05-18T01:51:33.344Z,6.13
2018-05-18T01:54:00.301Z,5.40
2018-05-18T01:56:26.992Z,4.70
2018-05-18T01:58:53.208Z,3.87
2018-05-18T02:01:19.440Z,3.43
2018-05-18T02:03:46.288Z,3.60
2018-05-18T02:06:12.507Z,5.30
2018-05-18T02:08:39.229Z,7.33
2018-05-18T02:11:06.208Z,6.80
2018-05-18T02:13:32.961Z,6.20
2018-05-18T02:15:59.512Z,7.73
2018-05-18T02:18:25.730Z,6.33
2018-05-18T02:20:52.400Z,6.63
2018-05-18T02:23:18.648Z,5.50
2018-05-18T02:25:45.416Z,5.00
2018-05-18T02:28:12.366Z,4.60
2018-05-18T02:30:39.841Z,4.80
2018-05-18T02:33:06.792Z,7.43
2018-05-18T02:35:33.765Z,6.63
2018-05-18T02:38:00.001Z,4.70
2018-05-18T02:40:26.223Z,6.17
2018-05-18T02:42:53.112Z,7.27
2018-05-18T02:45:19.909Z,6.53
2018-05-18T02:47:47.535Z,4.70
2018-05-18T02:50:14.317Z,4.43
2018-05-18T02:52:41.269Z,3.67
2018-05-18T02:55:08.221Z,2.90
2018-05-18T02:57:34.957Z,3.37
2018-05-18T03:00:02.300Z,3.27
2018-05-18T03:02:28.517Z,3.60
2018-05-18T03:04:54.749Z,3.50
2018-05-18T03:07:21.464Z,4.87
2018-05-18T03:09:48.083Z,3.70
2018-05-18T03:12:15.493Z,4.03
2018-05-18T03:14:42.288Z,3.57
2018-05-18T03:17:09.271Z,2.70
2018-05-18T03:19:35.983Z,4.23
2018-05-18T03:22:02.967Z,5.20
2018-05-18T03:24:30.197Z,4.73
2018-05-18T03:26:56.444Z,6.70
2018-05-18T03:29:22.656Z,5.60
2018-05-18T03:31:50.120Z,3.83
2018-05-18T03:34:17.106Z,3.63
2018-05-18T03:36:43.336Z,7.10
2018-05-18T03:39:10.016Z,6.20
2018-05-18T03:41:36.235Z,4.70
2018-05-18T03:44:03.567Z,3.70
2018-05-18T03:46:30.707Z,3.67
2018-05-18T03:48:58.952Z,3.40
2018-05-18T03:51:25.468Z,3.77
2018-05-18T03:53:52.312Z,4.37
2018-05-18T03:56:19.426Z,4.97
2018-05-18T03:58:47.022Z,5.30
2018-05-18T04:01:25.629Z,5.07
2018-05-18T04:04:04.932Z,5.47
2018-05-18T04:06:44.180Z,5.97
2018-05-18T04:09:11.624Z,6.00
2018-05-18T04:11:38.594Z,4.83
2018-05-18T04:14:04.808Z,3.70
2018-05-18T04:16:32.448Z,4.80
2018-05-18T04:18:58.686Z,5.23
2018-05-18T04:21:24.904Z,5.63
2018-05-18T04:23:51.532Z,6.70
2018-05-18T04:26:18.437Z,8.80
2018-05-18T04:28:45.397Z,7.83
2018-05-18T04:31:12.804Z,5.97
2018-05-18T04:33:39.026Z,8.13
2018-05-18T04:36:05.235Z,9.20
2018-05-18T04:38:31.900Z,7.20
2018-05-18T04:40:58.739Z,4.63
2018-05-18T04:43:24.956Z,4.23
2018-05-18T04:45:53.632Z,4.13
2018-05-18T04:48:20.928Z,4.17
2018-05-18T04:50:47.580Z,4.83
2018-05-18T04:53:14.219Z,5.00
2018-05-18T04:55:40.444Z,6.70
2018-05-18T04:58:07.182Z,6.17
2018-05-18T05:00:33.912Z,5.63
2018-05-18T05:03:00.857Z,6.10
2018-05-18T05:05:27.882Z,5.40
2018-05-18T05:07:54.859Z,4.90
2018-05-18T05:10:21.818Z,6.00
2018-05-18T05:12:48.968Z,5.20
2018-05-18T05:15:16.384Z,4.27
2018-05-18T05:17:42.624Z,5.10
2018-05-18T05:20:08.845Z,5.43
2018-05-18T05:22:35.136Z,5.17
2018-05-18T05:25:02.136Z,5.73
2018-05-18T05:27:28.441Z,5.30
2018-05-18T05:29:55.464Z,4.93
2018-05-18T05:32:23.336Z,5.00
2018-05-18T05:34:50.909Z,5.37
2018-05-18T05:37:18.465Z,5.00
2018-05-18T05:39:45.437Z,5.57
2018-05-18T05:42:11.656Z,4.13
2018-05-18T05:44:39.177Z,4.60
2018-05-18T05:47:06.064Z,4.70
2018-05-18T05:49:33.365Z,5.07
2018-05-18T05:51:59.582Z,5.43
2018-05-18T05:54:25.792Z,4.70
2018-05-18T05:56:53.256Z,5.63
2018-05-18T05:59:20.589Z,6.00
2018-05-18T06:01:46.809Z,7.07
2018-05-18T06:04:13.439Z,7.37
2018-05-18T06:06:39.661Z,5.27
2018-05-18T06:09:05.872Z,4.80
2018-05-18T06:11:32.408Z,4.90
2018-05-18T06:13:58.632Z,5.00
2018-05-18T06:16:25.962Z,5.97
2018-05-18T06:18:52.195Z,5.57
2018-05-18T06:21:18.435Z,5.30
2018-05-18T06:23:44.683Z,7.50
2018-05-18T06:26:12.264Z,6.93
2018-05-18T06:28:39.267Z,5.40
2018-05-18T06:31:06.144Z,6.20
2018-05-18T06:33:32.976Z,5.83
2018-05-18T06:35:59.541Z,6.10
2018-05-18T06:38:26.498Z,6.20
2018-05-18T06:40:53.453Z,5.17
2018-05-18T06:43:20.448Z,4.70
2018-05-18T06:45:47.205Z,5.00
2018-05-18T06:48:13.830Z,5.77
2018-05-18T06:50:40.597Z,5.30
2018-05-18T06:53:07.377Z,5.60
2018-05-18T06:55:35.058Z,4.83
2018-05-18T06:58:02.492Z,5.77
2018-05-18T07:00:28.704Z,4.93
2018-05-18T07:02:55.230Z,4.30
2018-05-18T07:05:21.444Z,4.20
2018-05-18T07:07:47.674Z,4.57
2018-05-18T07:10:14.433Z,6.70
2018-05-18T07:12:40.659Z,6.13
2018-05-18T07:15:07.595Z,9.67
2018-05-18T07:17:33.810Z,6.57
2018-05-18T07:20:00.762Z,5.80
2018-05-18T07:22:27.776Z,6.60
2018-05-18T07:24:53.984Z,4.97
2018-05-18T07:27:21.289Z,5.07
2018-05-18T07:29:48.578Z,4.93
2018-05-18T07:32:15.931Z,4.70
2018-05-18T07:34:43.225Z,4.90
2018-05-18T07:37:09.444Z,5.63
2018-05-18T07:39:35.653Z,6.23
2018-05-18T07:42:02.652Z,7.00
2018-05-18T07:44:28.877Z,5.87
2018-05-18T07:46:55.625Z,7.37
2018-05-18T07:49:22.169Z,6.63
2018-05-18T07:51:49.208Z,7.10
2018-05-18T07:54:15.861Z,6.20
2018-05-18T07:56:42.773Z,6.17
2018-05-18T07:59:10.541Z,6.10
2018-05-18T08:01:37.504Z,6.20
2018-05-18T08:04:04.516Z,5.50
2018-05-18T08:06:32.690Z,5.53
2018-05-18T08:08:58.892Z,5.27
2018-05-18T08:11:25.101Z,4.87
2018-05-18T08:13:52.089Z,5.37
2018-05-18T08:16:18.940Z,4.77
2018-05-18T08:18:45.644Z,4.63
2018-05-18T08:21:13.133Z,5.30
2018-05-18T08:23:40.334Z,5.70
2018-05-18T08:26:06.572Z,4.03
2018-05-18T08:28:46.440Z,4.00
2018-05-18T08:31:13.948Z,4.10
2018-05-18T08:33:40.160Z,4.17
2018-05-18T08:36:06.408Z,4.03
2018-05-18T08:38:32.677Z,6.00
2018-05-18T08:40:58.896Z,4.60
2018-05-18T08:43:25.224Z,4.73
2018-05-18T08:45:52.320Z,3.33
2018-05-18T08:48:19.792Z,3.93
2018-05-18T08:50:47.361Z,4.43
2018-05-18T08:53:14.317Z,4.80
2018-05-18T08:55:40.551Z,6.17
2018-05-18T08:58:07.456Z,6.20
2018-05-18T09:00:33.703Z,6.30
2018-05-18T09:03:00.672Z,5.20
2018-05-18T09:05:28.077Z,4.67
2018-05-18T09:07:54.304Z,3.87
2018-05-18T09:10:20.545Z,4.67
2018-05-18T09:12:47.248Z,5.80
2018-05-18T09:15:14.805Z,4.77
2018-05-18T09:17:41.786Z,4.40
2018-05-18T09:20:08.021Z,4.27
2018-05-18T09:22:34.803Z,4.23
2018-05-18T09:25:01.699Z,5.17
2018-05-18T09:27:28.672Z,4.20
2018-05-18T09:29:55.384Z,3.80
2018-05-18T09:32:22.341Z,4.57
2018-05-18T09:34:49.337Z,4.63
2018-05-18T09:37:15.574Z,4.60
2018-05-18T09:39:41.839Z,4.00
2018-05-18T09:42:08.121Z,3.83
2018-05-18T09:44:35.817Z,4.30
2018-05-18T09:47:02.649Z,4.37
2018-05-18T09:49:29.562Z,4.20
2018-05-18T09:51:57.224Z,3.83
2018-05-18T09:54:24.776Z,5.03
2018-05-18T09:56:51.437Z,3.80
2018-05-18T09:59:18.413Z,4.00
2018-05-18T10:01:44.960Z,4.20
2018-05-18T10:04:11.609Z,4.23
2018-05-18T10:06:37.848Z,4.17
2018-05-18T10:09:07.115Z,4.00
2018-05-18T10:11:34.569Z,3.40
2018-05-18T10:14:01.532Z,3.17
2018-05-18T10:16:28.372Z,3.80
2018-05-18T10:18:55.389Z,3.60
2018-05-18T10:21:21.623Z,3.23
2018-05-18T10:23:48.225Z,4.23
2018-05-18T10:26:14.904Z,5.00
2018-05-18T10:28:41.128Z,3.80
2018-05-18T10:31:07.347Z,2.80
2018-05-18T10:33:33.588Z,2.67
2018-05-18T10:35:59.804Z,3.00
2018-05-18T10:38:26.110Z,4.10
2018-05-18T10:40:53.100Z,3.03
2018-05-18T10:43:19.913Z,3.00
2018-05-18T10:45:46.876Z,4.50
2018-05-18T10:48:13.616Z,4.20
2018-05-18T10:50:40.351Z,3.60
2018-05-18T10:53:07.837Z,3.80
2018-05-18T10:55:33.999Z,3.33
2018-05-18T10:58:00.694Z,4.30
2018-05-18T11:00:28.357Z,3.77
2018-05-18T11:02:55.924Z,4.17
2018-05-18T11:05:23.373Z,5.00
2018-05-18T11:07:49.578Z,4.10
2018-05-18T11:10:15.804Z,4.10
2018-05-18T11:12:42.075Z,3.93
2018-05-18T11:15:10.041Z,4.33
2018-05-18T11:17:37.020Z,4.53
2018-05-18T11:20:04.135Z,4.87
2018-05-18T11:22:30.362Z,3.80
2018-05-18T11:24:56.982Z,4.70
2018-05-18T11:27:23.228Z,4.40
2018-05-18T11:29:49.423Z,4.83
2018-05-18T11:32:15.689Z,3.87
2018-05-18T11:34:41.897Z,5.07
2018-05-18T11:37:08.197Z,3.93
2018-05-18T11:39:35.213Z,5.40
2018-05-18T11:42:01.877Z,5.00
2018-05-18T11:44:28.531Z,6.60
2018-05-18T11:46:55.144Z,5.73
2018-05-18T11:49:22.045Z,4.47
2018-05-18T11:51:49.612Z,5.80
2018-05-18T11:54:16.572Z,5.27
2018-05-18T11:56:44.240Z,6.10
2018-05-18T11:59:11.195Z,5.20
2018-05-18T12:01:37.424Z,7.13
2018-05-18T12:04:04.413Z,5.80
2018-05-18T12:06:30.640Z,6.43
2018-05-18T12:08:56.944Z,5.27
2018-05-18T12:11:23.922Z,5.70
2018-05-18T12:13:50.169Z,6.30
2018-05-18T12:16:16.734Z,8.40
2018-05-18T12:18:43.350Z,8.10
2018-05-18T12:21:10.184Z,5.27
2018-05-18T12:23:51.360Z,6.03
2018-05-18T12:26:17.597Z,5.73
2018-05-18T12:28:43.824Z,6.50
2018-05-18T12:31:10.133Z,5.47
2018-05-18T12:33:37.709Z,6.10
2018-05-18T12:36:03.943Z,5.63
2018-05-18T12:38:31.706Z,5.63
2018-05-18T12:40:58.747Z,5.83
2018-05-18T12:43:26.192Z,5.67
2018-05-18T12:45:52.840Z,5.23
2018-05-18T12:48:19.635Z,5.47
2018-05-18T12:50:46.196Z,6.40
2018-05-18T12:53:13.155Z,6.70
2018-05-18T12:55:40.157Z,6.50
2018-05-18T12:58:07.821Z,6.83
2018-05-18T13:00:34.804Z,6.83
2018-05-18T13:03:01.043Z,5.97
2018-05-18T13:05:27.328Z,5.27
2018-05-18T13:07:54.320Z,5.83
2018-05-18T13:10:20.637Z,6.53
2018-05-18T13:12:46.886Z,6.23
2018-05-18T13:15:13.896Z,5.20
2018-05-18T13:17:41.477Z,5.53
2018-05-18T13:20:08.940Z,6.50
2018-05-18T13:22:35.896Z,5.00
2018-05-18T13:25:02.911Z,5.30
2018-05-18T13:27:29.193Z,6.27
2018-05-18T13:29:55.449Z,6.33
2018-05-18T13:32:22.161Z,5.80
2018-05-18T13:34:49.237Z,5.63
2018-05-18T13:37:15.921Z,5.00
2018-05-18T13:39:42.864Z,5.13
2018-05-18T13:42:09.566Z,5.10
2018-05-18T13:44:35.784Z,4.50
2018-05-18T13:47:03.356Z,4.90
2018-05-18T13:49:30.605Z,4.27
2018-05-18T13:51:58.112Z,5.33
2018-05-18T13:54:24.369Z,5.27
2018-05-18T13:56:51.158Z,5.10
2018-05-18T13:59:17.393Z,4.30
2018-05-18T14:01:43.638Z,5.13
2018-05-18T14:04:10.277Z,3.90
2018-05-18T14:06:36.501Z,3.70
2018-05-18T14:09:08.415Z,4.30
2018-05-18T14:11:34.653Z,4.57
2018-05-18T14:14:01.449Z,4.20
2018-05-18T14:16:29.213Z,4.17
2018-05-18T14:18:56.192Z,3.90
2018-05-18T14:21:22.408Z,4.63
2018-05-18T14:23:48.663Z,4.17
2018-05-18T14:26:14.919Z,4.27
2018-05-18T14:28:41.815Z,4.40
2018-05-18T14:31:08.792Z,4.40
2018-05-18T14:33:35.024Z,3.93
2018-05-18T14:36:01.270Z,7.13
2018-05-18T14:38:28.270Z,5.00
2018-05-18T14:40:55.144Z,4.60
2018-05-18T14:43:21.750Z,5.07
2018-05-18T14:45:47.973Z,6.90
2018-05-18T14:48:14.656Z,4.80
2018-05-18T14:50:41.946Z,6.00
2018-05-18T14:53:08.197Z,4.90
2018-05-18T14:55:34.416Z,4.33
2018-05-18T14:58:01.241Z,4.23
2018-05-18T15:00:27.984Z,3.43
2018-05-18T15:02:54.205Z,3.30
2018-05-18T15:05:21.168Z,4.13
2018-05-18T15:07:47.432Z,3.10
2018-05-18T15:10:13.665Z,3.10
2018-05-18T15:12:40.998Z,2.80
2018-05-18T15:15:07.824Z,4.13
2018-05-18T15:17:35.397Z,5.27
2018-05-18T15:20:02.798Z,5.53
2018-05-18T15:22:29.024Z,6.00
2018-05-18T15:24:55.617Z,2.60
2018-05-18T15:27:22.588Z,4.67
2018-05-18T15:29:49.551Z,4.10
2018-05-18T15:32:16.268Z,4.70
2018-05-18T15:34:43.167Z,2.90
2018-05-18T15:37:09.997Z,4.10
2018-05-18T15:39:36.208Z,4.30
2018-05-18T15:42:03.881Z,5.20
2018-05-18T15:44:30.116Z,6.10
2018-05-18T15:46:58.564Z,5.40
2018-05-18T15:49:25.295Z,4.63
2018-05-18T15:51:52.208Z,4.67
2018-05-18T15:54:18.943Z,7.00
2018-05-18T15:56:46.363Z,6.07
2018-05-18T15:59:12.594Z,6.07
2018-05-18T16:01:39.216Z,6.83
2018-05-18T16:04:05.506Z,5.93
2018-05-18T16:06:32.796Z,6.80
2018-05-18T16:08:59.460Z,6.97
2018-05-18T16:11:26.133Z,6.20
2018-05-18T16:13:52.372Z,5.23
2018-05-18T16:16:19.630Z,5.70
2018-05-18T16:18:46.252Z,5.60
2018-05-18T16:21:13.050Z,5.70
2018-05-18T16:23:40.017Z,7.80
2018-05-18T16:26:06.277Z,8.70
2018-05-18T16:28:32.910Z,6.77
2018-05-18T16:30:59.675Z,6.13
2018-05-18T16:33:26.347Z,5.33
2018-05-18T16:35:53.813Z,5.50
2018-05-18T16:38:21.533Z,4.60
2018-05-18T16:40:47.772Z,4.80
2018-05-18T16:43:13.996Z,5.40
2018-05-18T16:45:40.654Z,5.03
2018-05-18T16:48:07.460Z,5.80
2018-05-18T16:50:34.296Z,6.97
2018-05-18T16:53:01.270Z,4.60
2018-05-18T16:55:27.509Z,4.93
2018-05-18T16:57:54.143Z,4.47
2018-05-18T17:00:20.402Z,3.90
2018-05-18T17:02:46.648Z,4.00
2018-05-18T17:05:12.909Z,3.80
2018-05-18T17:07:39.546Z,4.00
2018-05-18T17:10:06.407Z,4.07
2018-05-18T17:12:33.194Z,4.50
2018-05-18T17:14:59.350Z,4.50
2018-05-18T17:17:27.067Z,5.00
2018-05-18T17:19:54.774Z,5.10
2018-05-18T17:22:20.997Z,4.57
2018-05-18T17:24:47.222Z,5.50
2018-05-18T17:27:13.462Z,3.93
2018-05-18T17:29:40.214Z,6.50
2018-05-18T17:32:07.033Z,4.87
2018-05-18T17:34:34.040Z,5.60
2018-05-18T17:37:00.666Z,4.80
2018-05-18T17:39:26.910Z,4.10
2018-05-18T17:41:53.919Z,4.10
2018-05-18T17:44:20.994Z,4.10
2018-05-18T17:46:47.642Z,5.33
2018-05-18T17:49:14.397Z,4.80
2018-05-18T17:51:41.030Z,5.00
2018-05-18T17:54:07.348Z,4.23
2018-05-18T17:56:34.144Z,5.00
2018-05-18T17:59:00.418Z,4.20
2018-05-18T18:01:27.573Z,3.90
2018-05-18T18:03:54.336Z,4.67
2018-05-18T18:06:21.299Z,4.93
2018-05-18T18:08:47.584Z,6.30
2018-05-18T18:11:14.360Z,6.43
2018-05-18T18:13:41.349Z,5.70
2018-05-18T18:16:08.079Z,5.53
2018-05-18T18:18:34.333Z,6.67
2018-05-18T18:21:00.550Z,5.93
2018-05-18T18:23:27.182Z,6.27
2018-05-18T18:25:53.405Z,6.20
2018-05-18T18:28:20.361Z,6.80
2018-05-18T18:30:46.979Z,10.03
2018-05-18T18:33:14.449Z,6.70
2018-05-18T18:35:41.428Z,6.33
2018-05-18T18:38:08.194Z,6.43
2018-05-18T18:40:34.945Z,5.20
2018-05-18T18:43:01.204Z,7.60
2018-05-18T18:45:28.080Z,12.33
2018-05-18T18:47:55.741Z,10.70
2018-05-18T18:50:23.331Z,9.77
2018-05-18T18:52:50.064Z,8.80
2018-05-18T18:55:16.305Z,9.73
2018-05-18T18:57:43.010Z,8.30
2018-05-18T19:00:10.939Z,8.80
2018-05-18T19:02:38.106Z,8.00
2018-05-18T19:05:06.044Z,7.63
2018-05-18T19:07:32.736Z,7.63
2018-05-18T19:09:58.972Z,6.90
2018-05-18T19:12:25.366Z,6.53
2018-05-18T19:14:51.720Z,6.23
2018-05-18T19:17:18.287Z,5.63
2018-05-18T19:19:44.566Z,6.40
2018-05-18T19:22:11.560Z,6.50
2018-05-18T19:24:38.420Z,6.30
2018-05-18T19:27:04.697Z,6.30
2018-05-18T19:29:31.668Z,5.10
2018-05-18T19:31:58.428Z,6.03
2018-05-18T19:34:24.730Z,6.17
2018-05-18T19:36:51.708Z,5.70
2018-05-18T19:39:18.563Z,5.60
2018-05-18T19:41:44.904Z,5.73
2018-05-18T19:44:11.353Z,6.50
2018-05-18T19:46:38.085Z,5.73
2018-05-18T19:49:04.809Z,4.77
2018-05-18T19:51:31.061Z,5.40
2018-05-18T19:53:57.757Z,4.57
2018-05-18T19:56:24.630Z,4.60
2018-05-18T19:58:51.917Z,4.80
2018-05-18T20:01:18.666Z,5.33
2018-05-18T20:03:45.302Z,5.43
2018-05-18T20:06:12.017Z,5.87
2018-05-18T20:08:39.000Z,5.63
2018-05-18T20:11:05.259Z,5.10
2018-05-18T20:13:31.530Z,5.33
2018-05-18T20:15:59.104Z,5.90
2018-05-18T20:18:26.190Z,6.37
2018-05-18T20:20:52.435Z,6.20
2018-05-18T20:23:19.046Z,5.60
2018-05-18T20:25:45.291Z,5.70
2018-05-18T20:28:12.253Z,5.30
2018-05-18T20:30:38.488Z,4.90
2018-05-18T20:33:04.740Z,4.00
2018-05-18T20:35:31.445Z,4.00
2018-05-18T20:37:57.680Z,4.20
2018-05-18T20:40:23.906Z,4.30
2018-05-18T20:42:51.576Z,3.90
2018-05-18T20:45:18.294Z,4.10
2018-05-18T20:47:45.848Z,7.03
2018-05-18T20:50:12.615Z,9.20
2018-05-18T20:52:40.552Z,6.73
2018-05-18T20:55:07.209Z,5.03
2018-05-18T20:57:33.996Z,6.93
2018-05-18T21:00:01.458Z,5.30
2018-05-18T21:02:28.440Z,5.23
2018-05-18T21:04:55.090Z,6.53
2018-05-18T21:07:21.303Z,4.27
2018-05-18T21:09:47.533Z,7.53
2018-05-18T21:12:13.784Z,4.50
2018-05-18T21:14:40.006Z,5.00
2018-05-18T21:17:06.708Z,4.25
2018-05-18T21:19:33.685Z,4.10
2018-05-18T21:22:01.180Z,3.70
2018-05-18T21:24:27.416Z,4.68
2018-05-18T21:26:54.643Z,4.30
2018-05-18T21:29:20.914Z,3.90
2018-05-18T21:31:47.132Z,4.10
2018-05-18T21:34:13.813Z,5.77
2018-05-18T21:36:40.248Z,5.17
2018-05-18T21:39:06.469Z,4.20
2018-05-18T21:41:33.107Z,4.07
2018-05-18T21:43:59.324Z,3.70
2018-05-18T21:46:26.144Z,3.87
2018-05-18T21:48:53.421Z,3.67
2018-05-18T21:51:20.184Z,4.30
2018-05-18T21:53:47.213Z,4.80
2018-05-18T21:56:13.440Z,4.70
2018-05-18T21:58:40.823Z,5.07
2018-05-18T22:01:07.016Z,5.30
2018-05-18T22:03:34.445Z,4.60
2018-05-18T22:06:00.670Z,4.30
2018-05-18T22:08:26.882Z,4.30
2018-05-18T22:10:53.131Z,3.97
2018-05-18T22:13:19.340Z,3.83
2018-05-18T22:15:45.659Z,3.80
2018-05-18T22:18:13.431Z,3.90
2018-05-18T22:20:40.406Z,4.83
2018-05-18T22:23:06.628Z,5.03
2018-05-18T22:25:33.254Z,4.60
2018-05-18T22:28:00.218Z,6.57
2018-05-18T22:30:27.092Z,4.90
2018-05-18T22:32:54.005Z,4.77
2018-05-18T22:35:20.951Z,5.80
2018-05-18T22:37:47.910Z,5.00
2018-05-18T22:40:14.900Z,4.27
2018-05-18T22:42:41.138Z,4.60
2018-05-18T22:45:07.810Z,3.90
2018-05-18T22:47:35.400Z,4.30
2018-05-18T22:50:02.856Z,4.70
2018-05-18T22:52:30.528Z,5.60
2018-05-18T22:54:57.836Z,4.77
2018-05-18T22:57:24.632Z,4.80
2018-05-18T22:59:50.871Z,4.67
2018-05-18T23:02:17.834Z,5.13
2018-05-18T23:04:44.601Z,6.20
2018-05-18T23:07:10.827Z,5.93
2018-05-18T23:09:37.049Z,5.07
2018-05-18T23:12:03.304Z,4.20
2018-05-18T23:14:29.520Z,3.60
2018-05-18T23:16:56.349Z,4.30
2018-05-18T23:19:23.333Z,5.70
2018-05-18T23:21:50.164Z,4.20
2018-05-18T23:24:16.706Z,3.30
2018-05-18T23:26:42.920Z,4.10
2018-05-18T23:29:10.606Z,5.00
2018-05-18T23:31:36.822Z,5.53
2018-05-18T23:34:03.798Z,4.90
2018-05-18T23:36:30.036Z,5.13
2018-05-18T23:38:56.274Z,6.00
2018-05-18T23:41:22.564Z,6.77
2018-05-18T23:43:48.799Z,5.73
2018-05-18T23:46:15.621Z,7.30
2018-05-18T23:48:42.471Z,6.73
2018-05-18T23:51:09.085Z,6.10
2018-05-18T23:53:35.877Z,6.23
2018-05-18T23:56:02.498Z,6.23
2018-05-18T23:58:29.316Z,7.17
